»·PEaware :: N143VT KBIL-KMSO

N143VT :: KBIL-KMSO

FLIGHT INFORMATION

Flight Status: Arrived
Operator: Privately registered:
United States
More flights under this callsign
Pilot: Anonymous 16492 (16492)
Aircraft: BOMBARDIER BD-100 CHALLENGER 300
(CL30)
More flights by this aircraft type
Origin: KBIL Billings Logan Intl
United States
Destination: KMSO Missoula Intl
United States
More flights between these airports :: More routes between these airports
Route: +BIL V86 CPN JENKI
File this flight plan on PilotEdge
Remarks:
Altitude:
(Current/Filed)
22,000ft
Speed:
(Current/Filed)
440kts
Departed: 16-Oct-18 04:37 PM
Arrived: 16-Oct-18 05:39 PM
Distance/Time
Traveled:
239nm/1:01
Distance/Time
To Go:
Arrived

Flight Plot

Page will automatically refresh every two minutes.

Flight plan parsing failed; only flown route is shown


Map Options




Map Legend


Flown Route
Filed Route
Departure Airport
Arrival Airport
Navaid (VOR, NDB)
Fix

Horizontal Profiles

Position Reports

Time Latitude Longitude Heading Altitude Ground
Speed
16-Oct-18 15:55 45.803729 -108.530414 1 3658ft 0kts
16-Oct-18 15:56 45.803729 -108.530414 1 3658ft 0kts
16-Oct-18 15:57 45.803729 -108.530414 1 3658ft 0kts
16-Oct-18 15:58 45.803729 -108.530414 1 3658ft 0kts
16-Oct-18 15:59 45.803729 -108.530414 1 3658ft 0kts
16-Oct-18 16:00 45.803729 -108.530414 1 3658ft 0kts
16-Oct-18 16:01 45.803729 -108.530414 1 3658ft 0kts
16-Oct-18 16:02 45.803729 -108.530414 1 3658ft 0kts
16-Oct-18 16:03 45.803729 -108.530414 1 3658ft 0kts
16-Oct-18 16:04 45.803729 -108.530414 1 3658ft 0kts
16-Oct-18 16:05 45.803729 -108.530414 1 3658ft 0kts
16-Oct-18 16:06 45.803729 -108.530414 1 3658ft 0kts
16-Oct-18 16:07 45.803729 -108.530414 1 3658ft 0kts
16-Oct-18 16:08 45.803729 -108.530414 1 3658ft 0kts
16-Oct-18 16:09 45.803729 -108.530414 1 3658ft 0kts
16-Oct-18 16:10 45.803729 -108.530414 1 3658ft 0kts
16-Oct-18 16:11 45.803729 -108.530414 1 3658ft 0kts
16-Oct-18 16:12 45.803729 -108.530414 1 3658ft 0kts
16-Oct-18 16:13 45.803729 -108.530414 1 3658ft 0kts
16-Oct-18 16:14 45.803729 -108.530414 1 3658ft 0kts
16-Oct-18 16:15 45.803729 -108.530414 1 3658ft 0kts
16-Oct-18 16:16 45.803729 -108.530414 1 3658ft 0kts
16-Oct-18 16:17 45.803729 -108.530414 1 3658ft 0kts
16-Oct-18 16:18 45.803729 -108.530414 1 3658ft 0kts
16-Oct-18 16:19 45.803729 -108.530414 1 3658ft 0kts
16-Oct-18 16:20 45.803729 -108.530414 1 3658ft 0kts
16-Oct-18 16:21 45.803729 -108.530414 1 3658ft 0kts
16-Oct-18 16:22 45.803729 -108.530414 1 3658ft 0kts
16-Oct-18 16:23 45.803729 -108.530414 1 3658ft 0kts
16-Oct-18 16:24 45.803729 -108.530414 1 3658ft 0kts
16-Oct-18 16:25 45.803729 -108.530414 1 3658ft 0kts
16-Oct-18 16:26 45.803729 -108.530414 1 3658ft 0kts
16-Oct-18 16:27 45.803729 -108.530414 1 3658ft 0kts
16-Oct-18 16:28 45.803729 -108.530414 1 3658ft 0kts
16-Oct-18 16:29 45.803729 -108.530414 1 3658ft 0kts
16-Oct-18 16:30 45.803729 -108.530414 0 3658ft 0kts
16-Oct-18 16:31 45.803729 -108.530414 0 3658ft 0kts
16-Oct-18 16:32 45.803729 -108.530414 0 3658ft 0kts
16-Oct-18 16:33 45.803729 -108.530414 0 3658ft 0kts
16-Oct-18 16:34 45.803829 -108.530410 0 3657ft 2kts
16-Oct-18 16:35 45.803679 -108.526692 110 3658ft 10kts
16-Oct-18 16:36 45.801300 -108.518433 110 3658ft 17kts
16-Oct-18 16:37 45.801151 -108.517625 80 3658ft 0kts
16-Oct-18 16:38 45.801677 -108.516924 20 3657ft 14kts
16-Oct-18 16:39 45.807682 -108.536633 288 3835ft 159kts
16-Oct-18 16:40 45.830870 -108.610974 291 7007ft 258kts
16-Oct-18 16:41 45.860269 -108.708991 291 7009ft 266kts
16-Oct-18 16:42 45.889333 -108.805599 292 7009ft 262kts
16-Oct-18 16:43 45.862143 -108.899271 230 7282ft 319kts
16-Oct-18 16:44 45.806677 -108.989382 232 9700ft 281kts
16-Oct-18 16:45 45.784448 -109.097790 266 13041ft 296kts
16-Oct-18 16:46 45.777035 -109.224382 267 15012ft 348kts
16-Oct-18 16:47 45.769025 -109.363675 267 15008ft 355kts
16-Oct-18 16:48 45.760506 -109.510472 267 18643ft 363kts
16-Oct-18 16:49 45.752193 -109.651855 267 22295ft 362kts
16-Oct-18 16:50 45.742662 -109.811563 267 22387ft 428kts
16-Oct-18 16:51 45.732355 -109.978701 267 22382ft 419kts
16-Oct-18 16:52 45.721947 -110.143628 267 22382ft 414kts
16-Oct-18 16:53 45.711383 -110.307278 267 22382ft 411kts
16-Oct-18 16:54 45.699243 -110.469083 264 22383ft 410kts
16-Oct-18 16:55 45.681433 -110.630059 263 22382ft 409kts
16-Oct-18 16:56 45.663310 -110.790263 263 22408ft 408kts
16-Oct-18 16:57 45.678585 -110.941463 302 22432ft 395kts
16-Oct-18 16:58 45.740711 -111.071080 307 22428ft 396kts
16-Oct-18 16:59 45.784580 -111.213127 281 22429ft 403kts
16-Oct-18 17:00 45.800379 -111.372356 279 22428ft 405kts
16-Oct-18 17:01 45.813750 -111.533052 278 22428ft 406kts
16-Oct-18 17:02 45.826290 -111.693186 278 22434ft 407kts
16-Oct-18 17:03 45.838556 -111.854433 278 22442ft 408kts
16-Oct-18 17:04 45.850589 -112.016123 278 22426ft 408kts
16-Oct-18 17:05 45.867015 -112.176356 292 22427ft 404kts
16-Oct-18 17:06 45.909051 -112.326191 294 22419ft 408kts
16-Oct-18 17:07 45.953031 -112.477146 294 22419ft 412kts
16-Oct-18 17:08 45.997583 -112.629464 294 22418ft 414kts
16-Oct-18 17:09 46.040119 -112.782658 290 22419ft 416kts
16-Oct-18 17:10 46.077757 -112.940178 290 22418ft 417kts
16-Oct-18 17:11 46.114759 -113.096855 290 20642ft 411kts
16-Oct-18 17:12 46.149025 -113.243167 290 20111ft 372kts
16-Oct-18 17:13 46.181584 -113.383038 290 18595ft 365kts
16-Oct-18 17:14 46.213307 -113.520207 290 17062ft 357kts
16-Oct-18 17:15 46.243687 -113.652428 289 15400ft 328kts
16-Oct-18 17:16 46.269397 -113.765033 289 15392ft 266kts
16-Oct-18 17:17 46.292172 -113.865134 289 14749ft 263kts
16-Oct-18 17:18 46.315112 -113.966388 289 12617ft 294kts
16-Oct-18 17:19 46.339943 -114.071397 307 11976ft 248kts
16-Oct-18 17:20 46.395768 -114.141941 321 12005ft 286kts
16-Oct-18 17:21 46.459002 -114.216403 322 12000ft 294kts
16-Oct-18 17:22 46.522868 -114.290326 322 12000ft 294kts
16-Oct-18 17:23 46.586757 -114.363969 322 12000ft 293kts
16-Oct-18 17:24 46.650588 -114.437583 322 12000ft 293kts
16-Oct-18 17:25 46.713039 -114.509759 322 11997ft 281kts
16-Oct-18 17:26 46.773392 -114.579675 322 10783ft 276kts
16-Oct-18 17:27 46.839852 -114.626601 349 9445ft 267kts
16-Oct-18 17:28 46.906231 -114.644025 350 9393ft 225kts
16-Oct-18 17:29 46.964696 -114.658237 350 9403ft 216kts
16-Oct-18 17:30 47.026153 -114.670735 11 9389ft 229kts
16-Oct-18 17:31 47.078854 -114.615425 36 9399ft 238kts
16-Oct-18 17:32 47.129548 -114.554198 37 9401ft 240kts
16-Oct-18 17:33 47.126148 -114.471039 122 8616ft 233kts
16-Oct-18 17:34 47.088396 -114.395848 126 7494ft 208kts
16-Oct-18 17:35 47.054238 -114.332877 129 6993ft 189kts
16-Oct-18 17:36 47.024084 -114.278075 128 6159ft 146kts
16-Oct-18 17:37 46.993629 -114.224516 131 5371ft 182kts
16-Oct-18 17:38 46.967005 -114.178779 131 4510ft 131kts
16-Oct-18 17:39 46.943338 -114.138243 131 3812ft 132kts
16-Oct-18 17:40 46.920088 -114.098300 131 3212ft 112kts
16-Oct-18 17:41 46.913261 -114.084326 38 3212ft 0kts
16-Oct-18 17:42 46.915372 -114.080901 88 3212ft 13kts
16-Oct-18 17:43 46.914859 -114.080697 266 3212ft 0kts
16-Oct-18 17:44 46.914859 -114.080697 266 3212ft 0kts
16-Oct-18 17:45 46.914859 -114.080697 266 3212ft 0kts
16-Oct-18 17:46 46.914859 -114.080697 266 3212ft 0kts
16-Oct-18 17:47 46.914859 -114.080697 266 3212ft 0kts
16-Oct-18 17:48 46.914859 -114.080697 266 3212ft 0kts
16-Oct-18 17:49 46.914859 -114.080697 266 3212ft 0kts

Navigation Log

Ident Type
Flight plan parsing failed, navigation log unavailable